createdAt,value
2023-03-29T00:01:10.307Z,7.60
2023-03-29T00:03:40.417Z,5.80
2023-03-29T00:06:09.791Z,6.00
2023-03-29T00:08:39.011Z,6.00
2023-03-29T00:11:07.828Z,5.80
2023-03-29T00:13:36.661Z,9.30
2023-03-29T00:16:05.816Z,5.20
2023-03-29T00:18:34.861Z,5.30
2023-03-29T00:21:03.937Z,5.60
2023-03-29T00:23:33.419Z,6.40
2023-03-29T00:26:02.490Z,6.80
2023-03-29T00:28:31.736Z,5.40
2023-03-29T00:31:29.615Z,5.40
2023-03-29T00:33:58.123Z,4.00
2023-03-29T00:36:27.972Z,6.30
2023-03-29T00:38:56.950Z,6.40
2023-03-29T00:41:26.323Z,6.00
2023-03-29T00:44:03.394Z,4.90
2023-03-29T00:46:35.744Z,5.90
2023-03-29T00:49:15.487Z,7.00
2023-03-29T00:51:44.303Z,5.10
2023-03-29T00:54:18.976Z,5.90
2023-03-29T00:56:51.288Z,7.20
2023-03-29T00:59:24.900Z,6.30
2023-03-29T01:02:26.238Z,6.30
2023-03-29T01:05:14.654Z,9.20
2023-03-29T01:07:58.258Z,6.30
2023-03-29T01:11:05.187Z,5.30
2023-03-29T01:13:51.628Z,4.60
2023-03-29T01:16:22.109Z,7.00
2023-03-29T01:18:52.474Z,5.40
2023-03-29T01:21:44.781Z,6.90
2023-03-29T01:24:24.940Z,8.70
2023-03-29T01:27:09.305Z,6.50
2023-03-29T01:29:47.371Z,7.00
2023-03-29T01:32:37.740Z,5.20
2023-03-29T01:35:16.549Z,5.50
2023-03-29T01:38:08.848Z,5.20
2023-03-29T01:40:37.761Z,4.80
2023-03-29T01:43:14.451Z,6.00
2023-03-29T01:46:19.107Z,5.40
2023-03-29T01:49:06.889Z,9.00
2023-03-29T01:52:09.668Z,5.40
2023-03-29T01:54:52.414Z,4.70
2023-03-29T01:57:25.705Z,3.90
2023-03-29T01:59:58.009Z,5.70
2023-03-29T02:02:31.110Z,5.10
2023-03-29T02:05:00.441Z,6.70
2023-03-29T02:07:32.572Z,8.80
2023-03-29T02:10:02.259Z,6.10
2023-03-29T02:12:31.313Z,6.70
2023-03-29T02:15:01.890Z,5.90
2023-03-29T02:17:31.563Z,5.10
2023-03-29T02:20:14.794Z,3.80
2023-03-29T02:23:37.452Z,5.50
2023-03-29T02:26:06.877Z,4.40
2023-03-29T02:28:36.312Z,4.20
2023-03-29T02:31:22.466Z,4.90
2023-03-29T02:34:10.604Z,4.80
2023-03-29T02:36:51.803Z,4.70
2023-03-29T02:39:22.099Z,6.10
2023-03-29T02:41:52.232Z,3.80
2023-03-29T02:44:27.506Z,6.60
2023-03-29T02:47:02.659Z,6.80
2023-03-29T02:49:31.514Z,5.20
2023-03-29T02:52:10.486Z,3.90
2023-03-29T02:54:43.957Z,5.90
2023-03-29T02:57:13.792Z,4.30
2023-03-29T02:59:44.308Z,5.00
2023-03-29T03:02:13.787Z,4.70
2023-03-29T03:04:47.458Z,5.90
2023-03-29T03:07:16.096Z,5.60
2023-03-29T03:09:44.892Z,6.10
2023-03-29T03:12:14.340Z,7.10
2023-03-29T03:14:42.948Z,3.70
2023-03-29T03:17:11.632Z,5.60
2023-03-29T03:19:40.747Z,7.60
2023-03-29T03:22:11.254Z,5.70
2023-03-29T03:24:40.219Z,3.90
2023-03-29T03:27:10.525Z,5.00
2023-03-29T03:29:42.266Z,9.20
2023-03-29T03:32:20.946Z,5.00
2023-03-29T03:34:49.895Z,5.30
2023-03-29T03:37:18.685Z,5.80
2023-03-29T03:39:47.851Z,2.40
2023-03-29T03:42:16.795Z,7.00
2023-03-29T03:44:49.789Z,8.70
2023-03-29T03:47:39.970Z,5.30
2023-03-29T03:50:38.902Z,2.20
2023-03-29T03:53:09.390Z,4.50
2023-03-29T03:55:56.543Z,5.10
2023-03-29T03:58:29.322Z,4.60
2023-03-29T04:00:58.245Z,5.50
2023-03-29T04:03:39.505Z,4.00
2023-03-29T04:06:10.173Z,4.40
2023-03-29T04:09:59.881Z,6.20
2023-03-29T04:12:31.171Z,6.90
2023-03-29T04:15:00.077Z,9.20
2023-03-29T04:17:29.974Z,6.60
2023-03-29T04:20:12.042Z,4.80
2023-03-29T04:22:42.101Z,4.10
2023-03-29T04:25:11.929Z,5.40
2023-03-29T04:27:51.108Z,8.70
2023-03-29T04:30:35.902Z,6.80
2023-03-29T04:33:22.096Z,5.60
2023-03-29T04:35:57.101Z,6.10
2023-03-29T04:38:27.217Z,7.70
2023-03-29T04:40:56.509Z,7.20
2023-03-29T04:43:48.337Z,6.80
2023-03-29T04:46:27.547Z,5.60
2023-03-29T04:49:08.232Z,9.00
2023-03-29T04:51:40.249Z,6.00
2023-03-29T04:54:09.448Z,5.50
2023-03-29T04:57:02.209Z,9.10
2023-03-29T04:59:42.915Z,8.00
2023-03-29T05:02:33.474Z,5.10
2023-03-29T05:05:22.442Z,7.00
2023-03-29T05:07:52.312Z,8.00
2023-03-29T05:10:25.571Z,5.10
2023-03-29T05:12:54.484Z,6.60
2023-03-29T05:15:23.844Z,9.30
2023-03-29T05:17:52.813Z,6.30
2023-03-29T05:23:41.051Z,6.60
2023-03-29T05:26:19.094Z,7.40
2023-03-29T05:28:53.476Z,5.70
2023-03-29T05:34:02.992Z,8.90
2023-03-29T05:36:32.422Z,6.30
2023-03-29T05:39:08.178Z,6.70
2023-03-29T05:41:37.279Z,6.20
2023-03-29T05:44:32.436Z,6.70
2023-03-29T05:47:14.443Z,6.40
2023-03-29T05:49:43.098Z,5.90
2023-03-29T05:52:43.972Z,7.20
2023-03-29T05:55:14.106Z,6.70
2023-03-29T05:57:42.887Z,8.20
2023-03-29T06:00:19.838Z,9.70
2023-03-29T06:02:48.637Z,7.20
2023-03-29T06:05:17.569Z,8.00
2023-03-29T06:08:19.711Z,6.70
2023-03-29T06:11:06.593Z,5.30
2023-03-29T06:13:58.196Z,4.10
2023-03-29T06:16:27.183Z,5.20
2023-03-29T06:18:56.051Z,7.80
2023-03-29T06:21:27.997Z,7.20
2023-03-29T06:23:57.018Z,5.40
2023-03-29T06:26:27.969Z,7.30
2023-03-29T06:28:57.958Z,5.40
2023-03-29T06:31:26.875Z,6.00
2023-03-29T06:33:55.744Z,5.20
2023-03-29T06:36:51.536Z,7.20
2023-03-29T06:39:21.460Z,5.50
2023-03-29T06:42:20.190Z,5.80
2023-03-29T06:45:12.525Z,3.40
2023-03-29T06:47:41.483Z,5.10
2023-03-29T06:50:11.881Z,4.40
2023-03-29T06:52:48.096Z,6.40
2023-03-29T06:55:19.847Z,6.80
2023-03-29T06:57:49.240Z,6.10
2023-03-29T07:00:19.730Z,2.50
2023-03-29T07:03:20.098Z,3.00
2023-03-29T07:06:01.664Z,4.60
2023-03-29T07:08:35.439Z,5.60
2023-03-29T07:11:08.806Z,8.00
2023-03-29T07:14:31.031Z,4.80
2023-03-29T07:17:00.196Z,3.40
2023-03-29T07:19:41.945Z,5.90
2023-03-29T07:22:51.929Z,5.70
2023-03-29T07:25:24.948Z,3.50
2023-03-29T07:27:54.428Z,2.90
2023-03-29T07:30:30.955Z,6.70
2023-03-29T07:33:12.543Z,3.60
2023-03-29T07:35:48.069Z,4.90
2023-03-29T07:38:16.942Z,3.10
2023-03-29T07:40:54.227Z,7.50
2023-03-29T07:43:41.990Z,3.60
2023-03-29T07:46:11.609Z,3.60
2023-03-29T07:48:40.778Z,4.50
2023-03-29T07:51:14.572Z,3.00
2023-03-29T07:53:50.580Z,5.00
2023-03-29T07:59:14.719Z,4.00
2023-03-29T08:01:48.625Z,4.20
2023-03-29T08:04:27.030Z,2.90
2023-03-29T08:07:19.340Z,5.00
2023-03-29T08:10:10.215Z,3.10
2023-03-29T08:13:22.752Z,4.90
2023-03-29T08:16:18.035Z,5.20
2023-03-29T08:18:53.029Z,2.80
2023-03-29T08:21:23.398Z,3.30
2023-03-29T08:23:52.683Z,5.40
2023-03-29T08:26:27.410Z,5.20
2023-03-29T08:28:56.957Z,4.90
2023-03-29T08:31:26.257Z,4.40
2023-03-29T08:33:55.128Z,2.80
2023-03-29T08:36:49.318Z,4.50
2023-03-29T08:39:27.954Z,3.20
2023-03-29T08:42:46.559Z,2.20
2023-03-29T08:46:11.208Z,2.90
2023-03-29T08:49:13.587Z,2.20
2023-03-29T08:51:52.010Z,3.00
2023-03-29T08:54:27.545Z,4.00
2023-03-29T08:57:50.068Z,5.60
2023-03-29T09:00:36.670Z,3.50
2023-03-29T09:06:22.356Z,7.30
2023-03-29T09:08:53.821Z,2.80
2023-03-29T09:11:45.649Z,3.50
2023-03-29T09:14:34.655Z,2.90
2023-03-29T09:17:28.071Z,4.00
2023-03-29T09:20:37.837Z,3.00
2023-03-29T09:23:37.176Z,3.10
2023-03-29T09:27:10.338Z,2.40
2023-03-29T09:30:20.133Z,3.10
2023-03-29T09:33:42.819Z,3.50
2023-03-29T09:36:53.943Z,3.00
2023-03-29T09:39:23.365Z,2.00
2023-03-29T09:42:12.047Z,2.30
2023-03-29T09:44:59.238Z,2.70
2023-03-29T09:47:52.605Z,3.00
2023-03-29T09:50:41.395Z,3.90
2023-03-29T09:53:11.187Z,2.20
2023-03-29T09:55:48.448Z,2.30
2023-03-29T09:58:31.858Z,4.70
2023-03-29T10:01:13.162Z,5.90
2023-03-29T10:03:42.801Z,4.00
2023-03-29T10:06:14.856Z,2.40
2023-03-29T10:09:03.285Z,3.00
2023-03-29T10:11:40.288Z,2.90
2023-03-29T10:14:52.236Z,2.10
2023-03-29T10:17:26.779Z,1.50
2023-03-29T10:20:06.423Z,2.80
2023-03-29T10:22:42.586Z,3.20
2023-03-29T10:25:18.843Z,3.50
2023-03-29T10:27:48.009Z,5.00
2023-03-29T10:30:26.581Z,2.70
2023-03-29T10:33:00.356Z,3.70
2023-03-29T10:35:44.703Z,1.90
2023-03-29T10:38:18.335Z,3.30
2023-03-29T10:40:54.515Z,2.40
2023-03-29T10:43:30.257Z,3.20
2023-03-29T10:46:29.076Z,1.90
2023-03-29T10:49:00.308Z,4.70
2023-03-29T10:51:30.986Z,3.80
2023-03-29T10:54:01.599Z,3.80
2023-03-29T10:56:44.235Z,4.00
2023-03-29T10:59:32.471Z,5.40
2023-03-29T11:02:20.668Z,3.70
2023-03-29T11:05:37.715Z,3.80
2023-03-29T11:08:47.447Z,4.30
2023-03-29T11:12:14.471Z,4.50
2023-03-29T11:15:06.979Z,3.90
2023-03-29T11:18:05.215Z,3.30
2023-03-29T11:21:23.618Z,3.90
2023-03-29T11:24:27.987Z,1.80
2023-03-29T11:27:23.928Z,1.80
2023-03-29T11:30:30.773Z,5.10
2023-03-29T11:33:46.866Z,3.80
2023-03-29T11:36:43.181Z,2.10
2023-03-29T11:39:29.055Z,6.50
2023-03-29T11:46:44.493Z,3.60
2023-03-29T11:49:30.531Z,4.50
2023-03-29T11:52:20.551Z,2.70
2023-03-29T11:55:26.330Z,5.10
2023-03-29T11:58:04.361Z,2.70
2023-03-29T12:00:45.121Z,2.10
2023-03-29T12:06:46.710Z,4.40
2023-03-29T12:09:40.240Z,4.40
2023-03-29T12:12:33.592Z,7.20
2023-03-29T12:15:13.376Z,4.60
2023-03-29T12:18:15.838Z,3.80
2023-03-29T12:20:51.546Z,4.80
2023-03-29T12:23:20.225Z,6.30
2023-03-29T12:25:58.129Z,5.10
2023-03-29T12:29:10.095Z,2.70
2023-03-29T12:32:19.559Z,6.00
2023-03-29T12:35:43.272Z,3.80
2023-03-29T12:38:32.790Z,4.60
2023-03-29T12:41:50.318Z,3.70
2023-03-29T12:44:37.718Z,3.60
2023-03-29T12:48:00.841Z,3.40
2023-03-29T12:51:01.470Z,2.30
2023-03-29T12:53:40.062Z,4.10
2023-03-29T12:56:17.817Z,2.90
2023-03-29T12:58:49.579Z,4.20
2023-03-29T13:01:34.774Z,7.30
2023-03-29T13:04:18.688Z,5.30
2023-03-29T13:07:29.080Z,5.70
2023-03-29T13:10:30.004Z,2.30
2023-03-29T13:13:25.177Z,2.90
2023-03-29T13:15:54.244Z,4.90
2023-03-29T13:22:11.592Z,3.50
2023-03-29T13:25:07.832Z,2.40
2023-03-29T13:27:51.942Z,2.30
2023-03-29T13:31:04.508Z,3.40
2023-03-29T13:34:35.484Z,3.20
2023-03-29T13:37:36.856Z,2.70
2023-03-29T13:40:30.148Z,5.10
2023-03-29T13:43:25.287Z,3.50
2023-03-29T13:45:56.952Z,3.60
2023-03-29T13:48:37.874Z,3.10
2023-03-29T13:51:18.898Z,7.30
2023-03-29T13:54:14.072Z,4.30
2023-03-29T13:57:02.922Z,3.10
2023-03-29T13:59:52.603Z,2.70
2023-03-29T14:02:43.854Z,4.40
2023-03-29T14:05:17.986Z,2.10
2023-03-29T14:07:55.157Z,3.80
2023-03-29T14:10:35.010Z,2.10
2023-03-29T14:14:05.488Z,5.20
2023-03-29T14:16:39.278Z,2.10
2023-03-29T14:19:40.324Z,5.10
2023-03-29T14:22:21.601Z,2.60
2023-03-29T14:24:57.521Z,2.90
2023-03-29T14:27:31.892Z,2.30
2023-03-29T14:30:01.042Z,3.20
2023-03-29T14:32:32.126Z,3.60
2023-03-29T14:35:00.964Z,3.60
2023-03-29T14:37:30.333Z,2.40
2023-03-29T14:39:59.567Z,5.00
2023-03-29T14:42:29.519Z,4.00
2023-03-29T14:45:06.663Z,3.80
2023-03-29T14:47:36.738Z,2.60
2023-03-29T14:50:17.266Z,3.30
2023-03-29T14:52:52.288Z,1.80
2023-03-29T14:55:24.687Z,1.90
2023-03-29T14:57:57.485Z,3.80
2023-03-29T15:00:38.955Z,2.10
2023-03-29T15:03:15.247Z,2.80
2023-03-29T15:05:54.669Z,3.50
2023-03-29T15:08:33.074Z,5.20
2023-03-29T15:11:03.328Z,3.20
2023-03-29T15:14:06.030Z,2.40
2023-03-29T15:16:44.622Z,2.90
2023-03-29T15:19:23.206Z,2.80
2023-03-29T15:21:52.098Z,3.30
2023-03-29T15:24:34.330Z,4.00
2023-03-29T15:27:54.400Z,2.20
2023-03-29T15:30:36.967Z,4.70
2023-03-29T15:33:23.240Z,1.80
2023-03-29T15:35:54.114Z,4.50
2023-03-29T15:38:30.212Z,3.50
2023-03-29T15:41:08.632Z,2.60
2023-03-29T15:43:37.727Z,2.00
2023-03-29T15:46:06.869Z,1.60
2023-03-29T15:48:35.882Z,4.90
2023-03-29T15:51:06.834Z,2.40
2023-03-29T15:53:36.317Z,3.40
2023-03-29T15:56:10.368Z,6.30
2023-03-29T15:58:39.392Z,4.20
2023-03-29T16:01:34.755Z,3.40
2023-03-29T16:04:14.375Z,2.50
2023-03-29T16:06:48.709Z,4.60
2023-03-29T16:09:17.803Z,3.00
2023-03-29T16:11:47.078Z,2.60
2023-03-29T16:14:31.509Z,3.20
2023-03-29T16:17:01.894Z,2.50
2023-03-29T16:19:32.279Z,4.40
2023-03-29T16:22:07.663Z,3.90
2023-03-29T16:24:36.806Z,2.90
2023-03-29T16:27:05.597Z,3.90
2023-03-29T16:29:34.423Z,1.10
2023-03-29T16:32:06.135Z,7.20
2023-03-29T16:34:36.190Z,4.90
2023-03-29T16:37:04.834Z,4.50
2023-03-29T16:39:33.543Z,2.90
2023-03-29T16:42:02.230Z,4.40
2023-03-29T16:44:31.163Z,2.80
2023-03-29T16:47:00.708Z,4.10
2023-03-29T16:49:29.546Z,1.80
2023-03-29T16:52:00.260Z,3.60
2023-03-29T16:54:30.394Z,3.20
2023-03-29T16:56:59.262Z,5.80
2023-03-29T16:59:28.507Z,2.90
2023-03-29T17:01:57.297Z,4.00
2023-03-29T17:04:26.644Z,3.60
2023-03-29T17:06:57.144Z,8.70
2023-03-29T17:09:27.737Z,5.70
2023-03-29T17:14:53.027Z,6.70
2023-03-29T17:17:21.828Z,5.70
2023-03-29T17:19:50.963Z,3.80
2023-03-29T17:22:20.315Z,8.60
2023-03-29T17:24:49.322Z,8.30
2023-03-29T17:27:20.210Z,4.80
2023-03-29T17:29:52.038Z,5.50
2023-03-29T17:32:26.886Z,4.60
2023-03-29T17:34:55.725Z,5.80
2023-03-29T17:37:25.780Z,2.70
2023-03-29T17:39:55.445Z,5.70
2023-03-29T17:42:30.127Z,5.90
2023-03-29T17:45:02.164Z,9.30
2023-03-29T17:47:31.809Z,4.80
2023-03-29T17:50:02.103Z,3.00
2023-03-29T17:52:35.946Z,2.60
2023-03-29T17:55:06.115Z,4.60
2023-03-29T17:57:34.776Z,4.10
2023-03-29T18:00:06.234Z,5.10
2023-03-29T18:02:35.221Z,4.30
2023-03-29T18:05:06.602Z,8.10
2023-03-29T18:07:57.280Z,6.20
2023-03-29T18:10:26.399Z,4.50
2023-03-29T18:12:55.662Z,8.60
2023-03-29T18:15:24.825Z,5.60
2023-03-29T18:17:53.782Z,4.30
2023-03-29T18:20:22.986Z,8.30
2023-03-29T18:23:24.901Z,4.40
2023-03-29T18:26:05.377Z,9.90
2023-03-29T18:28:39.067Z,10.40
2023-03-29T18:31:09.835Z,6.30
2023-03-29T18:33:39.124Z,4.80
2023-03-29T18:36:12.197Z,3.60
2023-03-29T18:38:44.182Z,4.20
2023-03-29T18:41:14.354Z,6.20
2023-03-29T18:43:46.510Z,7.00
2023-03-29T18:46:20.162Z,5.70
2023-03-29T18:48:48.965Z,7.00
2023-03-29T18:51:17.686Z,4.90
2023-03-29T18:53:46.406Z,6.00
2023-03-29T18:56:15.285Z,7.80
2023-03-29T18:58:43.941Z,10.30
2023-03-29T19:01:16.877Z,13.50
2023-03-29T19:03:45.773Z,19.60
2023-03-29T19:06:15.434Z,17.10
2023-03-29T19:08:44.037Z,16.00
2023-03-29T19:11:15.034Z,18.00
2023-03-29T19:13:47.114Z,21.30
2023-03-29T19:16:16.425Z,20.30
2023-03-29T19:18:46.010Z,19.70
2023-03-29T19:21:15.092Z,17.40
2023-03-29T19:23:44.032Z,23.50
2023-03-29T19:26:12.716Z,21.20
2023-03-29T19:28:41.687Z,29.60
2023-03-29T19:31:11.092Z,34.30
2023-03-29T19:33:49.965Z,33.90
2023-03-29T19:36:19.197Z,34.60
2023-03-29T19:38:48.115Z,26.80
2023-03-29T19:41:17.064Z,24.10
2023-03-29T19:43:45.944Z,23.30
2023-03-29T19:46:16.932Z,21.10
2023-03-29T19:48:45.871Z,21.60
2023-03-29T19:51:14.727Z,25.80
2023-03-29T19:53:43.437Z,20.70
2023-03-29T19:56:13.417Z,25.70
2023-03-29T19:58:42.382Z,21.90
2023-03-29T20:01:10.939Z,25.90
2023-03-29T20:03:41.587Z,21.80
2023-03-29T20:06:12.354Z,22.40
2023-03-29T20:08:41.062Z,20.60
2023-03-29T20:11:11.690Z,18.70
2023-03-29T20:13:46.114Z,18.10
2023-03-29T20:16:19.579Z,23.50
2023-03-29T20:18:48.129Z,19.70
2023-03-29T20:21:17.117Z,21.00
2023-03-29T20:23:46.321Z,19.50
2023-03-29T20:26:15.680Z,23.80
2023-03-29T20:28:44.383Z,21.40
2023-03-29T20:31:13.335Z,25.80
2023-03-29T20:33:42.706Z,24.90
2023-03-29T20:36:12.568Z,26.20
2023-03-29T20:38:41.420Z,26.20
2023-03-29T20:41:11.754Z,30.10
2023-03-29T20:43:41.454Z,31.30
2023-03-29T20:46:14.755Z,27.30
2023-03-29T20:48:54.337Z,28.40
2023-03-29T20:53:48.611Z,26.20
2023-03-29T20:56:19.591Z,24.90
2023-03-29T20:58:48.265Z,21.60
2023-03-29T21:01:16.938Z,17.40
2023-03-29T21:03:45.586Z,17.30
2023-03-29T21:06:15.778Z,16.80
2023-03-29T21:08:45.495Z,20.00
2023-03-29T21:11:17.616Z,20.20
2023-03-29T21:13:46.414Z,20.00
2023-03-29T21:16:15.954Z,22.10
2023-03-29T21:18:44.695Z,19.00
2023-03-29T21:21:13.855Z,18.00
2023-03-29T21:23:42.423Z,17.20
2023-03-29T21:26:10.934Z,19.20
2023-03-29T21:28:41.068Z,14.80
2023-03-29T21:31:10.374Z,13.00
2023-03-29T21:33:39.495Z,9.60
2023-03-29T21:36:08.580Z,14.80
2023-03-29T21:38:37.365Z,17.40
2023-03-29T21:41:12.152Z,19.10
2023-03-29T21:43:40.798Z,15.20
2023-03-29T21:46:11.320Z,16.70
2023-03-29T21:48:40.083Z,16.50
2023-03-29T21:51:09.166Z,17.80
2023-03-29T21:53:37.787Z,15.90
2023-03-29T21:56:08.564Z,13.10
2023-03-29T21:58:37.108Z,16.30
2023-03-29T22:01:07.437Z,14.30
2023-03-29T22:03:46.447Z,12.10
2023-03-29T22:06:15.177Z,14.60
2023-03-29T22:08:43.820Z,15.50
2023-03-29T22:11:15.820Z,17.30
2023-03-29T22:13:44.849Z,13.60
2023-03-29T22:16:14.283Z,12.30
2023-03-29T22:18:43.298Z,14.20
2023-03-29T22:21:26.774Z,11.40
2023-03-29T22:23:58.928Z,15.10
2023-03-29T22:26:32.347Z,13.90
2023-03-29T22:29:01.621Z,19.90
2023-03-29T22:31:31.860Z,15.00
2023-03-29T22:34:02.804Z,14.60
2023-03-29T22:36:32.535Z,13.90
2023-03-29T22:39:01.256Z,10.70
2023-03-29T22:41:29.816Z,10.10
2023-03-29T22:44:01.088Z,10.90
2023-03-29T22:46:29.793Z,11.90
2023-03-29T22:48:58.492Z,11.50
2023-03-29T22:51:27.437Z,10.60
2023-03-29T22:53:56.009Z,13.50
2023-03-29T22:56:24.993Z,13.80
2023-03-29T22:58:53.690Z,12.70
2023-03-29T23:01:22.568Z,11.40
2023-03-29T23:03:51.209Z,9.80
2023-03-29T23:06:19.905Z,12.90
2023-03-29T23:08:48.596Z,15.60
2023-03-29T23:11:17.053Z,12.20
2023-03-29T23:13:49.092Z,9.80
2023-03-29T23:16:20.889Z,9.80
2023-03-29T23:18:49.802Z,12.90
2023-03-29T23:21:18.442Z,14.50
2023-03-29T23:23:47.051Z,13.20
2023-03-29T23:26:16.057Z,10.80
2023-03-29T23:28:44.922Z,9.70
2023-03-29T23:31:19.195Z,10.70
2023-03-29T23:33:49.602Z,7.00
2023-03-29T23:36:18.954Z,7.10
2023-03-29T23:38:47.992Z,10.40
2023-03-29T23:41:18.842Z,11.10
2023-03-29T23:43:48.695Z,10.40
2023-03-29T23:46:19.476Z,8.90
2023-03-29T23:48:50.294Z,10.80
2023-03-29T23:51:23.375Z,12.20
2023-03-29T23:53:52.096Z,13.90
2023-03-29T23:56:24.479Z,9.60
2023-03-29T23:58:53.100Z,9.10
